sensor_id;sensor_type;location;lat;lon;timestamp;pressure;altitude;pressure_sealevel;temperature;humidity
32452;BME280;45528;52.102;5.242;2022-12-07T00:02:03;101437.0;;;10.11;63.09
32452;BME280;45528;52.102;5.242;2022-12-07T00:03:41;101438.0;;;10.08;63.07
32452;BME280;45528;52.102;5.242;2022-12-07T00:05:17;101435.0;;;10.03;63.12
32452;BME280;45528;52.102;5.242;2022-12-07T00:08:30;101432.0;;;10.03;63.15
32452;BME280;45528;52.102;5.242;2022-12-07T00:10:07;101435.0;;;10.06;63.15
32452;BME280;45528;52.102;5.242;2022-12-07T00:11:48;101434.0;;;10.1;63.48
32452;BME280;45528;52.102;5.242;2022-12-07T00:13:25;101436.0;;;10.23;63.38
32452;BME280;45528;52.102;5.242;2022-12-07T00:16:39;101435.0;;;10.32;63.1
32452;BME280;45528;52.102;5.242;2022-12-07T00:18:15;101434.0;;;10.37;62.79
32452;BME280;45528;52.102;5.242;2022-12-07T00:19:52;101437.0;;;10.34;62.95
32452;BME280;45528;52.102;5.242;2022-12-07T00:23:07;101435.0;;;10.38;62.7
32452;BME280;45528;52.102;5.242;2022-12-07T00:24:43;101427.0;;;10.24;62.63
32452;BME280;45528;52.102;5.242;2022-12-07T00:26:21;101430.0;;;10.11;63.11
32452;BME280;45528;52.102;5.242;2022-12-07T00:29:34;101426.0;;;10.16;62.73
32452;BME280;45528;52.102;5.242;2022-12-07T00:31:12;101421.0;;;10.14;62.47
32452;BME280;45528;52.102;5.242;2022-12-07T00:32:48;101423.0;;;10.06;62.43
32452;BME280;45528;52.102;5.242;2022-12-07T00:34:24;101420.0;;;9.98;62.72
32452;BME280;45528;52.102;5.242;2022-12-07T00:37:39;101414.0;;;9.84;62.73
32452;BME280;45528;52.102;5.242;2022-12-07T00:39:15;101421.0;;;9.73;62.83
32452;BME280;45528;52.102;5.242;2022-12-07T00:40:55;101414.0;;;9.64;63.01
32452;BME280;45528;52.102;5.242;2022-12-07T00:44:08;101417.0;;;9.63;62.95
32452;BME280;45528;52.102;5.242;2022-12-07T00:45:44;101411.0;;;9.55;62.81
32452;BME280;45528;52.102;5.242;2022-12-07T00:47:21;101405.0;;;9.51;62.76
32452;BME280;45528;52.102;5.242;2022-12-07T00:48:57;101405.0;;;9.47;62.65
32452;BME280;45528;52.102;5.242;2022-12-07T00:52:09;101409.0;;;9.41;62.79
32452;BME280;45528;52.102;5.242;2022-12-07T00:53:46;101406.0;;;9.39;63.12
32452;BME280;45528;52.102;5.242;2022-12-07T00:55:22;101405.0;;;9.32;63.02
32452;BME280;45528;52.102;5.242;2022-12-07T00:58:35;101410.0;;;9.48;62.77
32452;BME280;45528;52.102;5.242;2022-12-07T01:00:11;101408.0;;;9.39;63.11
32452;BME280;45528;52.102;5.242;2022-12-07T01:01:48;101406.0;;;9.34;63.03
32452;BME280;45528;52.102;5.242;2022-12-07T01:05:00;101405.0;;;9.31;62.84
32452;BME280;45528;52.102;5.242;2022-12-07T01:06:38;101399.0;;;9.23;62.81
32452;BME280;45528;52.102;5.242;2022-12-07T01:08:14;101398.0;;;9.27;62.92
32452;BME280;45528;52.102;5.242;2022-12-07T01:09:50;101400.0;;;9.21;62.87
32452;BME280;45528;52.102;5.242;2022-12-07T01:13:05;101399.0;;;9.23;62.8
32452;BME280;45528;52.102;5.242;2022-12-07T01:14:41;101405.0;;;9.23;62.9
32452;BME280;45528;52.102;5.242;2022-12-07T01:16:19;101408.0;;;9.17;62.85
32452;BME280;45528;52.102;5.242;2022-12-07T01:19:32;101408.0;;;9.21;62.9
32452;BME280;45528;52.102;5.242;2022-12-07T01:21:10;101405.0;;;9.14;62.98
32452;BME280;45528;52.102;5.242;2022-12-07T01:22:47;101410.0;;;9.09;62.98
32452;BME280;45528;52.102;5.242;2022-12-07T01:26:01;101414.0;;;9.05;63.12
32452;BME280;45528;52.102;5.242;2022-12-07T01:27:39;101419.0;;;9.0;63.07
32452;BME280;45528;52.102;5.242;2022-12-07T01:29:15;101413.0;;;8.99;63.2
32452;BME280;45528;52.102;5.242;2022-12-07T01:30:56;101414.0;;;8.9;63.12
32452;BME280;45528;52.102;5.242;2022-12-07T01:34:10;101408.0;;;8.93;63.29
32452;BME280;45528;52.102;5.242;2022-12-07T01:35:46;101403.0;;;8.89;63.23
32452;BME280;45528;52.102;5.242;2022-12-07T01:37:22;101405.0;;;8.88;63.13
32452;BME280;45528;52.102;5.242;2022-12-07T01:40:36;101407.0;;;8.96;63.26
32452;BME280;45528;52.102;5.242;2022-12-07T01:42:12;101406.0;;;8.94;62.93
32452;BME280;45528;52.102;5.242;2022-12-07T01:44:22;101412.0;;;8.93;63.06
32452;BME280;45528;52.102;5.242;2022-12-07T01:45:59;101409.0;;;8.97;63.29
32452;BME280;45528;52.102;5.242;2022-12-07T01:47:39;101410.0;;;9.05;63.04
32452;BME280;45528;52.102;5.242;2022-12-07T01:51:02;101403.0;;;8.89;62.87
32452;BME280;45528;52.102;5.242;2022-12-07T01:52:44;101405.0;;;8.81;63.01
32452;BME280;45528;52.102;5.242;2022-12-07T01:54:25;101407.0;;;8.81;62.87
32452;BME280;45528;52.102;5.242;2022-12-07T01:56:02;101406.0;;;8.76;62.84
32452;BME280;45528;52.102;5.242;2022-12-07T01:59:21;101406.0;;;8.86;62.89
32452;BME280;45528;52.102;5.242;2022-12-07T02:00:59;101410.0;;;8.9;62.92
32452;BME280;45528;52.102;5.242;2022-12-07T02:02:38;101409.0;;;8.97;62.7
32452;BME280;45528;52.102;5.242;2022-12-07T02:04:18;101410.0;;;9.01;62.78
32452;BME280;45528;52.102;5.242;2022-12-07T02:07:36;101407.0;;;8.9;62.72
32452;BME280;45528;52.102;5.242;2022-12-07T02:09:14;101409.0;;;8.92;62.55
32452;BME280;45528;52.102;5.242;2022-12-07T02:10:51;101408.0;;;8.89;62.81
32452;BME280;45528;52.102;5.242;2022-12-07T02:14:04;101407.0;;;8.82;62.93
32452;BME280;45528;52.102;5.242;2022-12-07T02:15:51;101409.0;;;8.74;63.14
32452;BME280;45528;52.102;5.242;2022-12-07T02:17:44;101403.0;;;8.88;63.24
32452;BME280;45528;52.102;5.242;2022-12-07T02:19:50;101396.0;;;8.89;63.34
32452;BME280;45528;52.102;5.242;2022-12-07T02:22:22;101398.0;;;8.9;63.52
32452;BME280;45528;52.102;5.242;2022-12-07T02:24:47;101401.0;;;9.06;63.36
32452;BME280;45528;52.102;5.242;2022-12-07T02:27:04;101402.0;;;9.19;63.16
32452;BME280;45528;52.102;5.242;2022-12-07T02:29:33;101405.0;;;9.28;63.07
32452;BME280;45528;52.102;5.242;2022-12-07T02:33:00;101403.0;;;9.32;63.4
32452;BME280;45528;52.102;5.242;2022-12-07T02:34:43;101396.0;;;9.36;63.02
32452;BME280;45528;52.102;5.242;2022-12-07T02:36:27;101395.0;;;9.4;63.0
32452;BME280;45528;52.102;5.242;2022-12-07T02:38:13;101391.0;;;9.35;63.17
32452;BME280;45528;52.102;5.242;2022-12-07T02:39:55;101392.0;;;9.35;63.2
32452;BME280;45528;52.102;5.242;2022-12-07T02:43:21;101388.0;;;9.34;63.31
32452;BME280;45528;52.102;5.242;2022-12-07T02:45:00;101389.0;;;9.36;63.32
32452;BME280;45528;52.102;5.242;2022-12-07T02:46:43;101388.0;;;9.39;63.24
32452;BME280;45528;52.102;5.242;2022-12-07T02:48:20;101390.0;;;9.38;63.14
32452;BME280;45528;52.102;5.242;2022-12-07T02:51:33;101390.0;;;9.35;63.2
32452;BME280;45528;52.102;5.242;2022-12-07T02:53:31;101389.0;;;9.38;63.1
32452;BME280;45528;52.102;5.242;2022-12-07T02:55:27;101391.0;;;9.38;62.97
32452;BME280;45528;52.102;5.242;2022-12-07T02:57:15;101395.0;;;9.32;62.8
32452;BME280;45528;52.102;5.242;2022-12-07T02:59:06;101390.0;;;9.35;62.66
32452;BME280;45528;52.102;5.242;2022-12-07T03:01:01;101393.0;;;9.23;62.78
32452;BME280;45528;52.102;5.242;2022-12-07T03:04:38;101395.0;;;9.23;63.01
32452;BME280;45528;52.102;5.242;2022-12-07T03:06:22;101402.0;;;9.36;62.99
32452;BME280;45528;52.102;5.242;2022-12-07T03:08:09;101415.0;;;9.44;63.1
32452;BME280;45528;52.102;5.242;2022-12-07T03:09:53;101411.0;;;9.51;63.52
32452;BME280;45528;52.102;5.242;2022-12-07T03:11:43;101405.0;;;9.69;63.38
32452;BME280;45528;52.102;5.242;2022-12-07T03:13:24;101392.0;;;9.73;63.37
32452;BME280;45528;52.102;5.242;2022-12-07T03:16:52;101382.0;;;9.78;63.18
32452;BME280;45528;52.102;5.242;2022-12-07T03:18:34;101378.0;;;9.8;63.22
32452;BME280;45528;52.102;5.242;2022-12-07T03:20:19;101382.0;;;9.83;63.15
32452;BME280;45528;52.102;5.242;2022-12-07T03:22:00;101384.0;;;9.88;63.2
32452;BME280;45528;52.102;5.242;2022-12-07T03:25:20;101381.0;;;9.91;63.01
32452;BME280;45528;52.102;5.242;2022-12-07T03:27:02;101381.0;;;9.91;62.74
32452;BME280;45528;52.102;5.242;2022-12-07T03:28:51;101383.0;;;9.83;62.77
32452;BME280;45528;52.102;5.242;2022-12-07T03:30:33;101375.0;;;9.77;62.88
32452;BME280;45528;52.102;5.242;2022-12-07T03:32:16;101377.0;;;9.72;62.88
32452;BME280;45528;52.102;5.242;2022-12-07T03:35:52;101378.0;;;9.67;62.96
32452;BME280;45528;52.102;5.242;2022-12-07T03:37:38;101378.0;;;9.56;62.83
32452;BME280;45528;52.102;5.242;2022-12-07T03:39:23;101380.0;;;9.55;62.45
32452;BME280;45528;52.102;5.242;2022-12-07T03:41:05;101381.0;;;9.41;62.28
32452;BME280;45528;52.102;5.242;2022-12-07T03:42:46;101378.0;;;9.35;62.83
32452;BME280;45528;52.102;5.242;2022-12-07T03:46:06;101377.0;;;9.3;62.8
32452;BME280;45528;52.102;5.242;2022-12-07T03:47:54;101374.0;;;9.23;62.87
32452;BME280;45528;52.102;5.242;2022-12-07T03:49:43;101375.0;;;9.19;63.17
32452;BME280;45528;52.102;5.242;2022-12-07T03:51:27;101374.0;;;9.33;63.25
32452;BME280;45528;52.102;5.242;2022-12-07T03:53:08;101375.0;;;9.4;63.2
32452;BME280;45528;52.102;5.242;2022-12-07T03:56:32;101380.0;;;9.48;62.99
32452;BME280;45528;52.102;5.242;2022-12-07T03:58:13;101380.0;;;9.44;62.95
32452;BME280;45528;52.102;5.242;2022-12-07T03:59:54;101380.0;;;9.47;62.89
32452;BME280;45528;52.102;5.242;2022-12-07T04:01:31;101380.0;;;9.4;62.97
32452;BME280;45528;52.102;5.242;2022-12-07T04:04:45;101377.0;;;9.39;63.14
32452;BME280;45528;52.102;5.242;2022-12-07T04:06:21;101376.0;;;9.43;63.2
32452;BME280;45528;52.102;5.242;2022-12-07T04:07:57;101376.0;;;9.32;62.66
32452;BME280;45528;52.102;5.242;2022-12-07T04:11:09;101373.0;;;9.33;62.92
32452;BME280;45528;52.102;5.242;2022-12-07T04:12:46;101370.0;;;9.3;62.93
32452;BME280;45528;52.102;5.242;2022-12-07T04:14:23;101367.0;;;9.27;63.09
32452;BME280;45528;52.102;5.242;2022-12-07T04:17:35;101372.0;;;9.31;62.88
32452;BME280;45528;52.102;5.242;2022-12-07T04:19:13;101372.0;;;9.27;62.91
32452;BME280;45528;52.102;5.242;2022-12-07T04:20:50;101364.0;;;9.22;62.68
32452;BME280;45528;52.102;5.242;2022-12-07T04:22:26;101362.0;;;9.15;62.67
32452;BME280;45528;52.102;5.242;2022-12-07T04:25:40;101361.0;;;9.01;62.35
32452;BME280;45528;52.102;5.242;2022-12-07T04:27:16;101358.0;;;9.01;62.78
32452;BME280;45528;52.102;5.242;2022-12-07T04:28:52;101365.0;;;9.01;62.84
32452;BME280;45528;52.102;5.242;2022-12-07T04:32:05;101368.0;;;9.07;62.36
32452;BME280;45528;52.102;5.242;2022-12-07T04:33:41;101367.0;;;9.09;62.46
32452;BME280;45528;52.102;5.242;2022-12-07T04:35:17;101368.0;;;9.13;62.66
32452;BME280;45528;52.102;5.242;2022-12-07T04:38:29;101367.0;;;9.16;62.5
32452;BME280;45528;52.102;5.242;2022-12-07T04:40:07;101369.0;;;9.1;62.7
32452;BME280;45528;52.102;5.242;2022-12-07T04:41:45;101380.0;;;9.14;62.72
32452;BME280;45528;52.102;5.242;2022-12-07T04:43:21;101389.0;;;9.33;62.7
32452;BME280;45528;52.102;5.242;2022-12-07T04:46:33;101384.0;;;9.33;62.84
32452;BME280;45528;52.102;5.242;2022-12-07T04:48:09;101384.0;;;9.36;62.84
32452;BME280;45528;52.102;5.242;2022-12-07T04:49:45;101381.0;;;9.15;62.86
32452;BME280;45528;52.102;5.242;2022-12-07T04:53:01;101368.0;;;9.36;63.01
32452;BME280;45528;52.102;5.242;2022-12-07T04:54:37;101363.0;;;9.39;63.08
32452;BME280;45528;52.102;5.242;2022-12-07T04:56:14;101359.0;;;9.41;63.1
32452;BME280;45528;52.102;5.242;2022-12-07T04:59:26;101353.0;;;9.43;63.05
32452;BME280;45528;52.102;5.242;2022-12-07T05:01:03;101353.0;;;9.48;62.87
32452;BME280;45528;52.102;5.242;2022-12-07T05:02:39;101346.0;;;9.4;63.04
32452;BME280;45528;52.102;5.242;2022-12-07T05:04:16;101344.0;;;9.42;62.92
32452;BME280;45528;52.102;5.242;2022-12-07T05:07:28;101347.0;;;9.57;62.35
32452;BME280;45528;52.102;5.242;2022-12-07T05:09:05;101349.0;;;9.4;62.17
32452;BME280;45528;52.102;5.242;2022-12-07T05:10:42;101348.0;;;9.33;62.25
32452;BME280;45528;52.102;5.242;2022-12-07T05:13:54;101349.0;;;9.23;62.49
32452;BME280;45528;52.102;5.242;2022-12-07T05:15:31;101346.0;;;9.21;62.71
32452;BME280;45528;52.102;5.242;2022-12-07T05:17:08;101350.0;;;9.21;62.6
32452;BME280;45528;52.102;5.242;2022-12-07T05:20:20;101351.0;;;9.15;62.59
32452;BME280;45528;52.102;5.242;2022-12-07T05:21:56;101349.0;;;9.1;62.66
32452;BME280;45528;52.102;5.242;2022-12-07T05:23:32;101348.0;;;9.07;62.99
32452;BME280;45528;52.102;5.242;2022-12-07T05:25:09;101353.0;;;9.11;62.74
32452;BME280;45528;52.102;5.242;2022-12-07T05:28:22;101344.0;;;9.07;62.79
32452;BME280;45528;52.102;5.242;2022-12-07T05:29:58;101348.0;;;9.0;62.92
32452;BME280;45528;52.102;5.242;2022-12-07T05:31:34;101344.0;;;8.97;63.03
32452;BME280;45528;52.102;5.242;2022-12-07T05:34:47;101345.0;;;8.93;62.82
32452;BME280;45528;52.102;5.242;2022-12-07T05:36:23;101344.0;;;8.88;62.65
32452;BME280;45528;52.102;5.242;2022-12-07T05:37:59;101343.0;;;8.86;62.92
32452;BME280;45528;52.102;5.242;2022-12-07T05:42:11;101345.0;;;8.77;62.8
32452;BME280;45528;52.102;5.242;2022-12-07T05:43:48;101341.0;;;8.74;62.72
32452;BME280;45528;52.102;5.242;2022-12-07T05:45:24;101343.0;;;8.69;62.84
32452;BME280;45528;52.102;5.242;2022-12-07T05:47:00;101341.0;;;8.69;62.56
32452;BME280;45528;52.102;5.242;2022-12-07T05:48:36;101345.0;;;8.66;62.93
32452;BME280;45528;52.102;5.242;2022-12-07T05:50:12;101342.0;;;8.66;62.98
32452;BME280;45528;52.102;5.242;2022-12-07T05:53:25;101347.0;;;8.69;62.72
32452;BME280;45528;52.102;5.242;2022-12-07T05:55:01;101343.0;;;8.65;63.07
32452;BME280;45528;52.102;5.242;2022-12-07T05:56:37;101343.0;;;8.64;63.15
32452;BME280;45528;52.102;5.242;2022-12-07T06:01:06;101345.0;;;8.61;63.33
32452;BME280;45528;52.102;5.242;2022-12-07T06:04:19;101345.0;;;8.69;63.08
32452;BME280;45528;52.102;5.242;2022-12-07T06:05:56;101345.0;;;8.68;63.03
32452;BME280;45528;52.102;5.242;2022-12-07T06:07:32;101344.0;;;8.71;62.99
32452;BME280;45528;52.102;5.242;2022-12-07T06:09:08;101346.0;;;8.65;63.08
32452;BME280;45528;52.102;5.242;2022-12-07T06:12:39;101342.0;;;8.64;62.89
32452;BME280;45528;52.102;5.242;2022-12-07T06:14:16;101341.0;;;8.64;62.89
32452;BME280;45528;52.102;5.242;2022-12-07T06:15:52;101340.0;;;8.6;62.91
32452;BME280;45528;52.102;5.242;2022-12-07T06:17:28;101340.0;;;8.61;62.83
32452;BME280;45528;52.102;5.242;2022-12-07T06:20:40;101343.0;;;8.65;63.11
32452;BME280;45528;52.102;5.242;2022-12-07T06:22:17;101342.0;;;8.64;62.79
32452;BME280;45528;52.102;5.242;2022-12-07T06:23:54;101346.0;;;8.64;62.99
32452;BME280;45528;52.102;5.242;2022-12-07T06:27:06;101343.0;;;8.65;63.01
32452;BME280;45528;52.102;5.242;2022-12-07T06:28:43;101343.0;;;8.76;62.99
32452;BME280;45528;52.102;5.242;2022-12-07T06:30:19;101345.0;;;8.74;62.96
32452;BME280;45528;52.102;5.242;2022-12-07T06:33:32;101348.0;;;8.78;63.42
32452;BME280;45528;52.102;5.242;2022-12-07T06:35:09;101348.0;;;8.82;63.3
32452;BME280;45528;52.102;5.242;2022-12-07T06:36:46;101350.0;;;8.89;63.08
32452;BME280;45528;52.102;5.242;2022-12-07T06:38:23;101355.0;;;8.88;62.85
32452;BME280;45528;52.102;5.242;2022-12-07T06:41:36;101357.0;;;9.0;62.73
32452;BME280;45528;52.102;5.242;2022-12-07T06:43:13;101352.0;;;8.94;62.83
32452;BME280;45528;52.102;5.242;2022-12-07T06:44:50;101355.0;;;8.84;62.74
32452;BME280;45528;52.102;5.242;2022-12-07T06:48:02;101350.0;;;8.81;62.6
32452;BME280;45528;52.102;5.242;2022-12-07T06:49:39;101345.0;;;8.75;62.75
32452;BME280;45528;52.102;5.242;2022-12-07T06:51:15;101345.0;;;8.73;62.83
32452;BME280;45528;52.102;5.242;2022-12-07T06:54:30;101345.0;;;8.76;62.93
32452;BME280;45528;52.102;5.242;2022-12-07T06:56:07;101345.0;;;8.73;62.99
32452;BME280;45528;52.102;5.242;2022-12-07T06:57:44;101347.0;;;8.73;63.12
32452;BME280;45528;52.102;5.242;2022-12-07T06:59:20;101349.0;;;8.74;63.23
32452;BME280;45528;52.102;5.242;2022-12-07T07:02:33;101343.0;;;8.73;63.09
32452;BME280;45528;52.102;5.242;2022-12-07T07:04:09;101348.0;;;8.73;63.13
32452;BME280;45528;52.102;5.242;2022-12-07T07:05:45;101353.0;;;8.9;63.2
32452;BME280;45528;52.102;5.242;2022-12-07T07:08:58;101350.0;;;9.02;63.06
32452;BME280;45528;52.102;5.242;2022-12-07T07:10:34;101349.0;;;9.0;63.34
32452;BME280;45528;52.102;5.242;2022-12-07T07:12:11;101346.0;;;8.99;63.03
32452;BME280;45528;52.102;5.242;2022-12-07T07:15:23;101351.0;;;9.0;62.86
32452;BME280;45528;52.102;5.242;2022-12-07T07:16:59;101348.0;;;8.98;63.1
32452;BME280;45528;52.102;5.242;2022-12-07T07:18:36;101342.0;;;8.94;63.1
32452;BME280;45528;52.102;5.242;2022-12-07T07:20:13;101343.0;;;8.89;62.82
32452;BME280;45528;52.102;5.242;2022-12-07T07:23:25;101346.0;;;8.89;62.74
32452;BME280;45528;52.102;5.242;2022-12-07T07:25:01;101347.0;;;8.89;62.6
32452;BME280;45528;52.102;5.242;2022-12-07T07:26:38;101355.0;;;8.89;62.46
32452;BME280;45528;52.102;5.242;2022-12-07T07:29:52;101348.0;;;8.9;62.55
32452;BME280;45528;52.102;5.242;2022-12-07T07:31:28;101347.0;;;8.81;62.35
32452;BME280;45528;52.102;5.242;2022-12-07T07:33:05;101348.0;;;8.73;62.37
32452;BME280;45528;52.102;5.242;2022-12-07T07:36:18;101350.0;;;8.78;62.23
32452;BME280;45528;52.102;5.242;2022-12-07T07:37:54;101351.0;;;8.67;62.55
32452;BME280;45528;52.102;5.242;2022-12-07T07:39:31;101350.0;;;8.59;62.29
32452;BME280;45528;52.102;5.242;2022-12-07T07:41:07;101355.0;;;8.57;62.47
32452;BME280;45528;52.102;5.242;2022-12-07T07:44:19;101351.0;;;8.57;62.6
32452;BME280;45528;52.102;5.242;2022-12-07T07:45:55;101350.0;;;8.51;62.71
32452;BME280;45528;52.102;5.242;2022-12-07T07:47:31;101356.0;;;8.57;62.61
32452;BME280;45528;52.102;5.242;2022-12-07T07:50:44;101353.0;;;8.53;62.59
32452;BME280;45528;52.102;5.242;2022-12-07T07:52:20;101356.0;;;8.55;62.67
32452;BME280;45528;52.102;5.242;2022-12-07T07:53:57;101357.0;;;8.56;62.48
32452;BME280;45528;52.102;5.242;2022-12-07T07:57:10;101356.0;;;8.48;62.62
32452;BME280;45528;52.102;5.242;2022-12-07T07:58:46;101355.0;;;8.48;62.79
32452;BME280;45528;52.102;5.242;2022-12-07T08:00:22;101350.0;;;8.39;62.76
32452;BME280;45528;52.102;5.242;2022-12-07T08:03:34;101347.0;;;8.36;62.91
32452;BME280;45528;52.102;5.242;2022-12-07T08:05:12;101348.0;;;8.39;62.75
32452;BME280;45528;52.102;5.242;2022-12-07T08:06:49;101353.0;;;8.39;62.77
32452;BME280;45528;52.102;5.242;2022-12-07T08:08:25;101353.0;;;8.35;62.68
32452;BME280;45528;52.102;5.242;2022-12-07T08:11:38;101356.0;;;8.32;62.95
32452;BME280;45528;52.102;5.242;2022-12-07T08:13:15;101356.0;;;8.39;63.04
32452;BME280;45528;52.102;5.242;2022-12-07T08:14:51;101357.0;;;8.42;63.01
32452;BME280;45528;52.102;5.242;2022-12-07T08:18:05;101358.0;;;8.42;62.78
32452;BME280;45528;52.102;5.242;2022-12-07T08:19:42;101360.0;;;8.48;63.08
32452;BME280;45528;52.102;5.242;2022-12-07T08:21:18;101371.0;;;8.64;63.23
32452;BME280;45528;52.102;5.242;2022-12-07T08:24:33;101378.0;;;8.84;63.37
32452;BME280;45528;52.102;5.242;2022-12-07T08:26:11;101386.0;;;9.13;63.62
32452;BME280;45528;52.102;5.242;2022-12-07T08:27:48;101386.0;;;9.19;63.68
32452;BME280;45528;52.102;5.242;2022-12-07T08:29:25;101390.0;;;9.36;63.58
32452;BME280;45528;52.102;5.242;2022-12-07T08:32:39;101391.0;;;9.46;63.76
32452;BME280;45528;52.102;5.242;2022-12-07T08:34:16;101385.0;;;9.32;64.3
32452;BME280;45528;52.102;5.242;2022-12-07T08:35:52;101383.0;;;9.73;63.42
32452;BME280;45528;52.102;5.242;2022-12-07T08:39:04;101368.0;;;9.77;63.26
32452;BME280;45528;52.102;5.242;2022-12-07T08:40:40;101372.0;;;9.83;63.11
32452;BME280;45528;52.102;5.242;2022-12-07T08:42:17;101376.0;;;9.92;63.24
32452;BME280;45528;52.102;5.242;2022-12-07T08:43:53;101377.0;;;10.02;62.95
32452;BME280;45528;52.102;5.242;2022-12-07T08:47:09;101377.0;;;10.03;63.05
32452;BME280;45528;52.102;5.242;2022-12-07T08:48:51;101376.0;;;10.15;62.75
32452;BME280;45528;52.102;5.242;2022-12-07T08:50:28;101371.0;;;10.08;63.07
32452;BME280;45528;52.102;5.242;2022-12-07T08:53:43;101372.0;;;10.14;63.26
32452;BME280;45528;52.102;5.242;2022-12-07T08:55:20;101372.0;;;10.25;63.18
32452;BME280;45528;52.102;5.242;2022-12-07T08:56:57;101372.0;;;10.35;63.1
32452;BME280;45528;52.102;5.242;2022-12-07T08:58:34;101377.0;;;10.41;62.7
32452;BME280;45528;52.102;5.242;2022-12-07T09:01:50;101375.0;;;10.44;62.86
32452;BME280;45528;52.102;5.242;2022-12-07T09:03:26;101380.0;;;10.53;62.91
32452;BME280;45528;52.102;5.242;2022-12-07T09:05:03;101376.0;;;10.58;62.92
32452;BME280;45528;52.102;5.242;2022-12-07T09:08:18;101378.0;;;10.64;62.71
32452;BME280;45528;52.102;5.242;2022-12-07T09:09:55;101382.0;;;10.71;62.91
32452;BME280;45528;52.102;5.242;2022-12-07T09:11:32;101381.0;;;10.75;62.85
32452;BME280;45528;52.102;5.242;2022-12-07T09:14:44;101376.0;;;10.63;62.8
32452;BME280;45528;52.102;5.242;2022-12-07T09:16:21;101380.0;;;10.8;62.53
32452;BME280;45528;52.102;5.242;2022-12-07T09:17:57;101375.0;;;10.88;62.29
32452;BME280;45528;52.102;5.242;2022-12-07T09:19:33;101370.0;;;10.86;62.3
32452;BME280;45528;52.102;5.242;2022-12-07T09:22:45;101367.0;;;10.91;62.1
32452;BME280;45528;52.102;5.242;2022-12-07T09:24:22;101370.0;;;10.95;62.27
32452;BME280;45528;52.102;5.242;2022-12-07T09:25:59;101367.0;;;10.92;62.33
32452;BME280;45528;52.102;5.242;2022-12-07T09:29:12;101367.0;;;11.06;62.23
32452;BME280;45528;52.102;5.242;2022-12-07T09:30:49;101369.0;;;11.04;62.17
32452;BME280;45528;52.102;5.242;2022-12-07T09:32:25;101370.0;;;11.1;61.63
32452;BME280;45528;52.102;5.242;2022-12-07T09:35:37;101373.0;;;11.14;61.64
32452;BME280;45528;52.102;5.242;2022-12-07T09:37:14;101368.0;;;11.05;61.78
32452;BME280;45528;52.102;5.242;2022-12-07T09:38:50;101370.0;;;11.07;61.91
32452;BME280;45528;52.102;5.242;2022-12-07T09:40:27;101366.0;;;11.17;61.83
32452;BME280;45528;52.102;5.242;2022-12-07T09:47:00;101365.0;;;11.55;62.01
32452;BME280;45528;52.102;5.242;2022-12-07T09:48:37;101369.0;;;11.76;61.78
32452;BME280;45528;52.102;5.242;2022-12-07T09:50:16;101367.0;;;11.96;61.32
32452;BME280;45528;52.102;5.242;2022-12-07T09:52:03;101370.0;;;12.04;60.93
32452;BME280;45528;52.102;5.242;2022-12-07T09:53:56;101367.0;;;12.17;60.37
32452;BME280;45528;52.102;5.242;2022-12-07T09:57:25;101368.0;;;12.21;60.13
32452;BME280;45528;52.102;5.242;2022-12-07T09:59:12;101370.0;;;12.2;60.04
32452;BME280;45528;52.102;5.242;2022-12-07T10:00:50;101369.0;;;12.22;60.02
32452;BME280;45528;52.102;5.242;2022-12-07T10:02:35;101366.0;;;12.12;60.29
32452;BME280;45528;52.102;5.242;2022-12-07T10:05:54;101365.0;;;12.31;60.25
32452;BME280;45528;52.102;5.242;2022-12-07T10:07:31;101363.0;;;12.33;59.76
32452;BME280;45528;52.102;5.242;2022-12-07T10:09:10;101360.0;;;12.38;59.78
32452;BME280;45528;52.102;5.242;2022-12-07T10:10:50;101364.0;;;12.29;59.81
32452;BME280;45528;52.102;5.242;2022-12-07T10:14:10;101356.0;;;12.45;59.46
32452;BME280;45528;52.102;5.242;2022-12-07T10:15:51;101347.0;;;12.45;59.42
32452;BME280;45528;52.102;5.242;2022-12-07T10:17:34;101346.0;;;12.36;59.43
32452;BME280;45528;52.102;5.242;2022-12-07T10:19:22;101346.0;;;12.42;59.61
32452;BME280;45528;52.102;5.242;2022-12-07T10:22:54;101342.0;;;12.43;59.15
32452;BME280;45528;52.102;5.242;2022-12-07T10:24:30;101343.0;;;12.42;59.14
32452;BME280;45528;52.102;5.242;2022-12-07T10:26:48;101345.0;;;12.44;59.06
32452;BME280;45528;52.102;5.242;2022-12-07T10:28:34;101332.0;;;12.51;58.82
32452;BME280;45528;52.102;5.242;2022-12-07T10:30:14;101333.0;;;12.53;58.79
32452;BME280;45528;52.102;5.242;2022-12-07T10:31:59;101330.0;;;12.35;59.37
32452;BME280;45528;52.102;5.242;2022-12-07T10:35:27;101332.0;;;12.67;58.68
32452;BME280;45528;52.102;5.242;2022-12-07T10:37:20;101330.0;;;12.75;58.23
32452;BME280;45528;52.102;5.242;2022-12-07T10:39:01;101335.0;;;12.63;58.37
32452;BME280;45528;52.102;5.242;2022-12-07T10:40:38;101326.0;;;12.51;58.98
32452;BME280;45528;52.102;5.242;2022-12-07T10:42:18;101327.0;;;13.03;58.49
32452;BME280;45528;52.102;5.242;2022-12-07T10:45:35;101321.0;;;13.08;58.81
32452;BME280;45528;52.102;5.242;2022-12-07T10:47:27;101315.0;;;13.26;58.0
32452;BME280;45528;52.102;5.242;2022-12-07T10:49:23;101314.0;;;13.38;57.06
32452;BME280;45528;52.102;5.242;2022-12-07T10:52:32;101310.0;;;13.61;56.8
32452;BME280;45528;52.102;5.242;2022-12-07T10:54:26;101314.0;;;13.69;56.29
32452;BME280;45528;52.102;5.242;2022-12-07T10:56:32;101315.0;;;13.73;55.57
32452;BME280;45528;52.102;5.242;2022-12-07T10:58:30;101311.0;;;13.47;55.93
32452;BME280;45528;52.102;5.242;2022-12-07T11:00:17;101310.0;;;13.54;55.46
32452;BME280;45528;52.102;5.242;2022-12-07T11:02:01;101316.0;;;13.46;55.99
32452;BME280;45528;52.102;5.242;2022-12-07T11:04:11;101318.0;;;13.44;55.16
32452;BME280;45528;52.102;5.242;2022-12-07T11:05:59;101320.0;;;13.51;55.33
32452;BME280;45528;52.102;5.242;2022-12-07T11:07:47;101314.0;;;13.18;55.78
32452;BME280;45528;52.102;5.242;2022-12-07T11:09:44;101309.0;;;13.2;55.81
32452;BME280;45528;52.102;5.242;2022-12-07T11:11:49;101301.0;;;13.26;55.8
32452;BME280;45528;52.102;5.242;2022-12-07T11:13:38;101305.0;;;12.95;56.79
32452;BME280;45528;52.102;5.242;2022-12-07T11:17:07;101303.0;;;13.03;56.4
32452;BME280;45528;52.102;5.242;2022-12-07T11:18:57;101299.0;;;13.26;55.14
32452;BME280;45528;52.102;5.242;2022-12-07T11:20:45;101299.0;;;13.21;55.45